Portada
METAR-TAF:

METAR-TAF

Aeroports :

Yanbu, Aràbia Saudita

latitud: 24-09N, longitud: 038-04E, altitud: 8 m

Observació

L'informe es va fer fa 1 hora i 12 minuts, a les 17:00 UTC
Vent 5 kt del Oest
Temperatura 26°C
Humitat 61%
Pressió 1011 hPa
Visibilitat 10 km o més
sense núvols per sota de 1500 mi sense presència de cumulonimbus.

METAR: OEYN 011700Z 27005KT CAVOK 26/18 Q1011 NOSIG

Hora: 21:12 (18:12 UTC)

Pronòstic

L'informe es va fer fa 7 hores i 12 minuts, a les 11:00 UTC
Pronòstic vàlid del 01 a les 12 UTC al 02 a les 18 UTC
Vent 10 kt del Nord/Nord-Oest
Visibilitat 10 km o més
Escasses núvols a una alçada de 4000 ft
Evolucionant progressivament
l' 01 a les 20 UTC al 01 a les 22 UTC
Vent 3 kt amb direcció variable
Evolucionant progressivament
l' 02 a les 06 UTC al 02 a les 08 UTC
Vent 10 kt del Nord/Nord-Oest

TAF: OEYN 011100Z 0112/0218 33010KT 9999 FEW040 BECMG 0120/0122 VRB03KT BECMG 0206/0208 33010KT

Observacions i pronòstics meteorològics de més de 4000 aeroports (METAR i TAF).

Les estacions disponibles són els punts grocs i vermells al mapa.

Posi el ratolí al punt desitjat per veure el nom de l'estació.

Feu clic per veure les observacions i els pronòstics meteorològics.

Per canviar el mapa: feu clic els botons verds amb una creu de color negre per apropar; al botó verd amb un guió per allunyar la imatge; o en les fletxes verdes per a mapes adjacents.


METAR-TAF: